Thunder radar more information blitzortung!


Radar de pluja more information rain snow radar


Visita la nostra xarxa de llocs de meteo:

Template documentation
and downloads

And another site



No particular awareness of the weather is required.    There are no Weather-warnings

Pagina Historial Weather Underground text

Diari Resum Novembre 24, 2017 Unitats:  Imperial    Mètric   Tant
« Previous Dia
SegĂźent Dia »
Diari Setmana Mensual Anual Personalitzada
  Maxima: Minima: Media:
Temperatura: TemperatureC °F 7.4 °F 15.2 °F
Punt de rosada: DewpointC °F 2.1 °F 5 °F
Humitat: Humidity % 41 % 51 %
Wind Speed: WindSpeedKMH mph 0.0 mph 3.1 mph
RĂ fegues de vent: WindSpeedGustKMH mph - -
Vent:- - SW
Pression baro: PressurehPa in 1015.8 in -
Precipitacions: 0.0 in    
Historical Graphs
 
 
Dades de taula per Novembre 24, 2017
Temps Temperatura Punt de rosada Pression baro Vent Wind Speed RĂ fegues de vent Humitat Rainfall Rate (Hourly)
TemperatureC °F DewpointC °F PressurehPa in Calm     Humidity % HourlyPrecipMM in
00:05 7.4 °F 2.1 °F 1018.8 in WSW 3.2 mph 4.8 mph 69 % 0.0 in
00:09 9.1 °F 6.0 °F 1019.9 in WSW 3.9 mph 3.9 mph 81 % 0.0 in
00:15 7.7 °F 2.4 °F 1018.8 in WSW 3.2 mph 4.8 mph 69 % 0.0 in
00:25 7.6 °F 2.3 °F 1019.9 in WSW 3.2 mph 4.8 mph 69 % 0.0 in
00:35 7.8 °F 2.4 °F 1019.9 in Calm   1.6 mph 69 % 0.0 in
00:45 8.5 °F 2.9 °F 1018.8 in North 1.6 mph 3.2 mph 68 % 0.0 in
01:05 9.0 °F 3.0 °F 1019.9 in North 1.6 mph 1.6 mph 66 % 0.0 in
01:15 9.0 °F 2.8 °F 1019.9 in Calm   3.2 mph 65 % 0.0 in
01:25 8.9 °F 2.7 °F 1019.9 in West 1.6 mph 1.6 mph 65 % 0.0 in
01:35 8.8 °F 2.8 °F 1019.9 in WSW 1.6 mph 1.6 mph 66 % 0.0 in
01:45 9.0 °F 2.8 °F 1019.9 in Calm   3.2 mph 65 % 0.0 in
01:55 9.0 °F 2.8 °F 1019.9 in NW 1.6 mph 3.2 mph 65 % 0.0 in
02:05 9.1 °F 2.9 °F 1019.9 in NW 1.6 mph 3.2 mph 65 % 0.0 in
02:15 9.2 °F 2.7 °F 1019.9 in Calm   1.6 mph 64 % 0.0 in
02:25 9.2 °F 2.9 °F 1019.9 in NW 1.6 mph 3.2 mph 65 % 0.0 in
02:35 8.9 °F 2.9 °F 1019.9 in North 3.2 mph 4.8 mph 66 % 0.0 in
02:45 8.9 °F 2.9 °F 1019.9 in NNE 1.6 mph 3.2 mph 66 % 0.0 in
02:55 8.9 °F 2.9 °F 1018.8 in Calm   3.2 mph 66 % 0.0 in
03:05 8.9 °F 2.9 °F 1018.8 in NW 1.6 mph 3.2 mph 66 % 0.0 in
03:35 9.4 °F 3.4 °F 1020.9 in SW 1.6 mph 1.6 mph 66 % 0.0 in
03:45 9.8 °F 3.5 °F 1020.9 in Calm     65 % 0.0 in
03:55 10.2 °F 3.7 °F 1019.9 in NNW 1.6 mph 4.8 mph 64 % 0.0 in
04:05 10.5 °F 3.7 °F 1019.9 in NNE 1.6 mph 1.6 mph 63 % 0.0 in
04:15 11.0 °F 4.2 °F 1020.9 in NNW 1.6 mph 3.2 mph 63 % 0.0 in
04:25 11.6 °F 4.6 °F 1020.9 in North 1.6 mph 3.2 mph 62 % 0.0 in
04:35 11.8 °F 5.2 °F 1020.9 in NNW 1.6 mph 3.2 mph 64 % 0.0 in
10:38 12.1 °F 5.5 °F 1020.9 in Calm   2.3 mph 64 % 0.0 in
10:39 12.4 °F 5.8 °F 1020.9 in Calm   2.6 mph 64 % 0.0 in
10:44 12.4 °F 5.8 °F 1020.9 in SW 3.7 mph 3.7 mph 64 % 0.0 in
10:49 12.6 °F 5.7 °F 1020.9 in SW 3.7 mph   63 % 0.0 in
10:54 12.9 °F 6.0 °F 1020.9 in SW 3.7 mph 3.7 mph 63 % 0.0 in
10:59 13.0 °F 6.3 °F 1020.9 in SW 2.3 mph 2.3 mph 64 % 0.0 in
11:04 13.2 °F 6.6 °F 1020.9 in SW 2.6 mph 2.6 mph 64 % 0.0 in
11:09 13.5 °F 6.6 °F 1020.9 in Calm     63 % 0.0 in
11:14 13.5 °F 6.6 °F 1020.9 in Calm     63 % 0.0 in
11:19 13.5 °F 6.3 °F 1020.9 in Calm     62 % 0.0 in
11:24 14.1 °F 7.2 °F 1020.9 in West 1.9 mph 1.9 mph 63 % 0.0 in
11:29 14.5 °F 7.6 °F 1020.9 in NNE 1.9 mph 1.9 mph 63 % 0.0 in
11:34 14.7 °F 7.3 °F 1020.9 in NNW 1.9 mph 1.9 mph 61 % 0.0 in
11:39 15.2 °F 7.5 °F 1020.9 in West 1.9 mph   60 % 0.0 in
11:44 15.5 °F 7.8 °F 1020.9 in SW 1.9 mph   60 % 0.0 in
11:49 15.9 °F 7.9 °F 1020.9 in SW 1.9 mph 1.9 mph 59 % 0.0 in
11:54 16.2 °F 7.9 °F 1020.9 in South 3.7 mph 3.7 mph 58 % 0.0 in
11:59 16.3 °F 8.0 °F 1020.9 in SE 3.7 mph 3.7 mph 58 % 0.0 in
12:04 16.2 °F 7.7 °F 1019.9 in ESE 3.2 mph 3.2 mph 57 % 0.0 in
12:09 16.6 °F 8.1 °F 1019.9 in SSE 3.7 mph 3.7 mph 57 % 0.0 in
12:14 16.5 °F 7.4 °F 1019.9 in SE 5.6 mph 5.6 mph 55 % 0.0 in
12:19 16.6 °F 7.8 °F 1019.9 in ENE 5.6 mph 5.6 mph 56 % 0.0 in
12:24 17.0 °F 8.2 °F 1019.9 in SW 3.7 mph 3.7 mph 56 % 0.0 in
12:29 17.3 °F 8.4 °F 1019.9 in SW 5.6 mph 5.6 mph 56 % 0.0 in
12:34 17.7 °F 8.6 °F 1018.8 in South 3.7 mph 3.7 mph 55 % 0.0 in
12:44 18.4 °F 9.2 °F 1018.8 in ESE 3.7 mph 3.7 mph 55 % 0.0 in
12:49 18.6 °F 8.8 °F 1019.9 in SE 5.0 mph 5.0 mph 53 % 0.0 in
12:54 18.2 °F 8.4 °F 1019.9 in ENE 5.6 mph 5.6 mph 53 % 0.0 in
12:59 18.3 °F 8.6 °F 1019.9 in SE 5.6 mph 5.6 mph 53 % 0.0 in
13:04 18.2 °F 8.4 °F 1018.8 in NE 5.3 mph 5.3 mph 53 % 0.0 in
13:09 18.2 °F 8.4 °F 1018.8 in ENE 7.4 mph 7.4 mph 53 % 0.0 in
13:14 18.4 °F 8.7 °F 1018.8 in ENE 5.6 mph 5.6 mph 53 % 0.0 in
13:19 18.7 °F 8.9 °F 1019.9 in ENE 4.2 mph 4.2 mph 53 % 0.0 in
13:24 18.9 °F 8.8 °F 1019.9 in SE 4.2 mph 4.2 mph 52 % 0.0 in
13:29 19.1 °F 8.7 °F 1019.9 in ESE 3.7 mph 3.7 mph 51 % 0.0 in
13:34 19.2 °F 8.5 °F 1018.8 in East 5.6 mph 5.6 mph 50 % 0.0 in
13:39 19.4 °F 8.4 °F 1018.8 in East 5.8 mph 5.8 mph 49 % 0.0 in
13:44 19.5 °F 8.8 °F 1018.8 in ENE 3.9 mph 3.9 mph 50 % 0.0 in
13:49 19.6 °F 8.6 °F 1018.8 in ESE 6.4 mph 6.4 mph 49 % 0.0 in
13:54 19.6 °F 8.6 °F 1018.8 in ESE 5.6 mph 5.6 mph 49 % 0.0 in
13:59 19.8 °F 8.8 °F 1018.8 in ESE 3.7 mph 3.7 mph 49 % 0.0 in
14:04 20.0 °F 8.9 °F 1018.8 in NE 1.9 mph   49 % 0.0 in
14:09 20.0 °F 9.3 °F 1018.8 in WNW 5.6 mph 5.6 mph 50 % 0.0 in
14:14 20.2 °F 9.2 °F 1018.8 in NNW 3.7 mph 3.7 mph 49 % 0.0 in
14:19 20.4 °F 9.0 °F 1018.8 in SW 5.6 mph 5.6 mph 48 % 0.0 in
14:29 20.7 °F 9.0 °F 1018.8 in WNW 7.4 mph 7.4 mph 47 % 0.0 in
14:34 20.9 °F 8.8 °F 1018.8 in SW 5.6 mph 5.6 mph 46 % 0.0 in
14:39 21.0 °F 8.6 °F 1018.8 in WNW 5.6 mph 5.8 mph 45 % 0.0 in
14:44 21.1 °F 8.7 °F 1018.8 in SW 5.6 mph 5.6 mph 45 % 0.0 in
14:49 21.4 °F 8.6 °F 1018.8 in SE 5.8 mph 5.8 mph 44 % 0.0 in
14:54 21.6 °F 8.5 °F 1018.8 in NNW 5.6 mph 5.6 mph 43 % 0.0 in
14:59 21.6 °F 8.5 °F 1018.8 in NNW 9.3 mph 9.3 mph 43 % 0.0 in
15:04 21.7 °F 8.6 °F 1018.8 in West 11.1 mph 11.1 mph 43 % 0.0 in
15:09 21.3 °F 7.9 °F 1018.8 in WNW 5.3 mph 5.3 mph 42 % 0.0 in
15:14 21.1 °F 7.7 °F 1018.8 in West 7.4 mph 7.4 mph 42 % 0.0 in
15:19 21.0 °F 7.2 °F 1018.8 in NW 4.7 mph 4.7 mph 41 % 0.0 in
15:24 20.9 °F 7.5 °F 1018.8 in NW 3.7 mph 3.7 mph 42 % 0.0 in
15:29 20.9 °F 7.5 °F 1018.8 in West 3.7 mph 3.7 mph 42 % 0.0 in
15:34 20.8 °F 7.1 °F 1018.8 in SW 3.7 mph 3.7 mph 41 % 0.0 in
15:39 20.7 °F 7.3 °F 1018.8 in West 5.6 mph 5.6 mph 42 % 0.0 in
15:44 20.6 °F 6.9 °F 1018.8 in WNW 3.7 mph 3.7 mph 41 % 0.0 in
15:49 20.5 °F 7.2 °F 1018.8 in WSW 5.6 mph 5.6 mph 42 % 0.0 in
15:54 20.4 °F 6.7 °F 1018.8 in WNW 3.7 mph 3.7 mph 41 % 0.0 in
15:59 20.2 °F 6.5 °F 1018.8 in WNW 5.6 mph 5.6 mph 41 % 0.0 in
16:04 20.0 °F 6.3 °F 1018.8 in West 5.6 mph 5.6 mph 41 % 0.0 in
16:09 20.0 °F 6.3 °F 1018.8 in West 5.6 mph 5.6 mph 41 % 0.0 in
16:14 19.8 °F 6.5 °F 1018.8 in WSW 7.4 mph 7.4 mph 42 % 0.0 in
16:19 19.7 °F 6.4 °F 1018.8 in West 7.4 mph 7.4 mph 42 % 0.0 in
16:24 19.6 °F 6.3 °F 1018.8 in SW 4.2 mph 4.2 mph 42 % 0.0 in
16:29 19.5 °F 6.2 °F 1018.8 in West 4.2 mph 4.2 mph 42 % 0.0 in
16:34 19.5 °F 6.2 °F 1018.8 in West 3.7 mph 3.7 mph 42 % 0.0 in
16:39 19.6 °F 6.3 °F 1018.8 in WNW 5.6 mph 5.6 mph 42 % 0.0 in
16:44 19.7 °F 6.4 °F 1018.8 in WSW 10.0 mph 10.0 mph 42 % 0.0 in
16:49 19.6 °F 6.3 °F 1018.8 in West 5.6 mph 5.6 mph 42 % 0.0 in
16:54 19.4 °F 6.2 °F 1018.8 in West 5.3 mph 5.3 mph 42 % 0.0 in
17:00 19.3 °F 6.1 °F 1018.8 in WSW 7.4 mph 7.4 mph 42 % 0.0 in
17:04 19.2 °F 5.9 °F 1018.8 in West 3.7 mph 3.7 mph 42 % 0.0 in
17:09 19.1 °F 5.9 °F 1018.8 in West 3.7 mph 3.7 mph 42 % 0.0 in
17:14 18.9 °F 5.7 °F 1018.8 in West 3.7 mph 3.7 mph 42 % 0.0 in
17:15 18.9 °F 5.7 °F 1018.8 in West 3.7 mph 3.7 mph 42 % 0.0 in
17:20 18.9 °F 6.1 °F 1018.8 in WSW 5.6 mph 5.6 mph 43 % 0.0 in
17:25 18.7 °F 5.5 °F 1018.8 in West 1.9 mph   42 % 0.0 in
17:30 18.6 °F 5.4 °F 1018.8 in West 1.4 mph 2.6 mph 42 % 0.0 in
17:35 18.4 °F 5.6 °F 1018.8 in NW 3.7 mph 3.7 mph 43 % 0.0 in
17:40 18.2 °F 5.1 °F 1018.8 in NW 1.9 mph   42 % 0.0 in
17:45 18.1 °F 5.0 °F 1018.8 in WNW 1.9 mph   42 % 0.0 in
17:47 18.0 °F 4.9 °F 1018.8 in West 1.9 mph 1.9 mph 42 % 0.0 in
17:52 17.9 °F 5.1 °F 1018.8 in WNW 3.7 mph 3.7 mph 43 % 0.0 in
17:57 17.8 °F 5.1 °F 1018.8 in Calm     43 % 0.0 in
18:02 17.7 °F 4.9 °F 1018.8 in WSW 3.9 mph   43 % 0.0 in
18:07 17.6 °F 4.9 °F 1018.8 in Calm     43 % 0.0 in
18:10 13.0 °F 3.1 °F 1018.8 in Calm   3.2 mph 51 % 0.0 in
18:12 17.6 °F 4.9 °F 1018.8 in West 1.9 mph   43 % 0.0 in
18:17 17.7 °F 4.9 °F 1018.8 in SW 3.7 mph 3.7 mph 43 % 0.0 in
18:20 12.8 °F 2.9 °F 1017.8 in Calm   3.2 mph 51 % 0.0 in
18:22 17.6 °F 4.9 °F 1018.8 in WSW 1.9 mph 1.9 mph 43 % 0.0 in
18:27 17.6 °F 4.9 °F 1018.8 in WSW 5.6 mph 5.6 mph 43 % 0.0 in
18:30 12.6 °F 3.0 °F 1017.8 in Calm   3.2 mph 52 % 0.0 in
18:32 17.5 °F 4.8 °F 1018.8 in West 1.9 mph   43 % 0.0 in
18:37 17.1 °F 4.4 °F 1018.8 in WSW 3.7 mph 3.7 mph 43 % 0.0 in
18:40 12.7 °F 3.1 °F 1018.8 in Calm   3.2 mph 52 % 0.0 in
18:42 16.8 °F 4.4 °F 1018.8 in WSW 3.7 mph 3.7 mph 44 % 0.0 in
18:47 16.6 °F 4.3 °F 1018.8 in SW 6.4 mph 6.4 mph 44 % 0.0 in
18:48 16.6 °F 4.3 °F 1018.8 in WSW 7.4 mph 7.4 mph 44 % 0.0 in
18:50 12.8 °F 3.2 °F 1017.8 in Calm   1.6 mph 52 % 0.0 in
18:53 16.5 °F 4.5 °F 1018.8 in SW 5.3 mph 5.3 mph 45 % 0.0 in
18:58 16.5 °F 4.5 °F 1018.8 in WSW 3.7 mph 3.7 mph 45 % 0.0 in
19:00 12.7 °F 3.1 °F 1017.8 in Calm     52 % 0.0 in
19:03 16.5 °F 4.5 °F 1018.8 in West 3.9 mph 3.9 mph 45 % 0.0 in
19:08 16.5 °F 4.5 °F 1018.8 in West 1.9 mph 1.9 mph 45 % 0.0 in
19:10 12.6 °F 3.0 °F 1017.8 in NE 1.6 mph 1.6 mph 52 % 0.0 in
19:13 16.4 °F 4.4 °F 1018.8 in WNW 1.9 mph   45 % 0.0 in
19:18 16.3 °F 4.3 °F 1018.8 in Calm     45 % 0.0 in
19:20 12.7 °F 3.3 °F 1017.8 in Calm   3.2 mph 53 % 0.0 in
19:23 16.2 °F 4.2 °F 1018.8 in West 1.9 mph   45 % 0.0 in
19:28 16.2 °F 4.2 °F 1018.8 in West 3.7 mph 3.7 mph 45 % 0.0 in
19:30 12.7 °F 3.3 °F 1017.8 in Calm   3.2 mph 53 % 0.0 in
19:33 16.0 °F 4.1 °F 1018.8 in SW 3.9 mph 3.9 mph 45 % 0.0 in
19:38 15.7 °F 3.8 °F 1018.8 in SW 5.0 mph 5.0 mph 45 % 0.0 in
19:40 12.8 °F 3.4 °F 1016.8 in Calm   3.2 mph 53 % 0.0 in
19:43 15.3 °F 3.4 °F 1018.8 in SW 5.8 mph 5.8 mph 45 % 0.0 in
19:48 15.3 °F 3.7 °F 1019.9 in West 3.7 mph 4.2 mph 46 % 0.0 in
19:50 12.7 °F 3.3 °F 1016.8 in Calm   1.6 mph 53 % 0.0 in
19:53 15.8 °F 4.2 °F 1019.9 in West 5.6 mph 5.6 mph 46 % 0.0 in
19:58 16.0 °F 4.4 °F 1019.9 in West 4.2 mph 4.2 mph 46 % 0.0 in
20:00 12.6 °F 3.3 °F 1016.8 in NW 1.6 mph 3.2 mph 53 % 0.0 in
20:03 16.1 °F 4.4 °F 1019.9 in West 3.7 mph 3.9 mph 46 % 0.0 in
20:08 16.1 °F 4.4 °F 1019.9 in West 3.9 mph 3.9 mph 46 % 0.0 in
20:10 12.6 °F 3.3 °F 1016.8 in Calm   1.6 mph 53 % 0.0 in
20:13 16.2 °F 4.6 °F 1019.9 in WSW 5.6 mph 5.6 mph 46 % 0.0 in
20:18 16.2 °F 4.6 °F 1019.9 in West 5.6 mph 5.6 mph 46 % 0.0 in
20:20 12.2 °F 2.9 °F 1017.8 in NW 1.6 mph 3.2 mph 53 % 0.0 in
20:23 16.3 °F 4.7 °F 1019.9 in WSW 5.6 mph 5.6 mph 46 % 0.0 in
20:28 16.3 °F 4.7 °F 1019.9 in West 7.4 mph 7.4 mph 46 % 0.0 in
20:30 12.2 °F 2.9 °F 1017.8 in West 1.6 mph 3.2 mph 53 % 0.0 in
20:33 16.3 °F 4.7 °F 1018.8 in WSW 5.6 mph 5.6 mph 46 % 0.0 in
20:38 16.2 °F 4.6 °F 1018.8 in West 7.4 mph 7.4 mph 46 % 0.0 in
20:40 12.2 °F 2.9 °F 1017.8 in WNW 1.6 mph 1.6 mph 53 % 0.0 in
20:43 16.3 °F 4.7 °F 1018.8 in West 7.4 mph 7.4 mph 46 % 0.0 in
20:48 16.2 °F 4.6 °F 1019.9 in West 5.6 mph 5.6 mph 46 % 0.0 in
20:50 11.6 °F 2.6 °F 1017.8 in WNW 1.6 mph 3.2 mph 54 % 0.0 in
20:53 16.1 °F 4.4 °F 1019.9 in West 5.6 mph 5.6 mph 46 % 0.0 in
20:58 15.9 °F 4.3 °F 1019.9 in SW 3.7 mph 3.7 mph 46 % 0.0 in
21:00 11.6 °F 2.6 °F 1017.8 in Calm   1.6 mph 54 % 0.0 in
21:03 15.8 °F 4.2 °F 1019.9 in WSW 5.6 mph 5.6 mph 46 % 0.0 in
21:08 15.7 °F 4.1 °F 1019.9 in WSW 5.6 mph 5.6 mph 46 % 0.0 in
21:10 11.7 °F 2.9 °F 1017.8 in Calm     55 % 0.0 in
21:13 15.7 °F 4.1 °F 1019.9 in West 5.3 mph 5.3 mph 46 % 0.0 in
21:19 15.7 °F 4.1 °F 1019.9 in SW 3.7 mph 3.7 mph 46 % 0.0 in
21:20 11.7 °F 2.9 °F 1017.8 in WSW 1.6 mph 3.2 mph 55 % 0.0 in
21:24 15.8 °F 4.2 °F 1019.9 in West 3.7 mph 3.7 mph 46 % 0.0 in
21:29 15.3 °F 3.7 °F 1019.9 in SW 5.6 mph 5.6 mph 46 % 0.0 in
21:30 11.3 °F 2.6 °F 1017.8 in Calm   3.2 mph 55 % 0.0 in
21:34 14.9 °F 3.4 °F 1019.9 in WSW 3.7 mph 3.7 mph 46 % 0.0 in
21:39 14.9 °F 3.4 °F 1019.9 in WSW 3.7 mph 3.7 mph 46 % 0.0 in
21:40 11.2 °F 2.7 °F 1017.8 in NE 1.6 mph 3.2 mph 56 % 0.0 in
21:44 14.9 °F 3.4 °F 1019.9 in SW 3.7 mph 3.7 mph 46 % 0.0 in
21:49 14.9 °F 3.4 °F 1019.9 in SW 3.7 mph 3.7 mph 46 % 0.0 in
21:50 10.9 °F 2.4 °F 1016.8 in Calm   1.6 mph 56 % 0.0 in
21:54 14.8 °F 3.6 °F 1019.9 in Calm     47 % 0.0 in
21:59 14.6 °F 3.4 °F 1019.9 in Calm     47 % 0.0 in
22:00 10.7 °F 2.5 °F 1016.8 in Calm     57 % 0.0 in
22:04 14.6 °F 3.4 °F 1019.9 in SW 3.7 mph 3.7 mph 47 % 0.0 in
22:09 14.7 °F 3.5 °F 1019.9 in WSW 3.7 mph 3.7 mph 47 % 0.0 in
22:10 10.6 °F 2.7 °F 1016.8 in Calm   1.6 mph 58 % 0.0 in
22:14 14.6 °F 3.4 °F 1019.9 in Calm     47 % 0.0 in
22:19 14.7 °F 3.5 °F 1019.9 in West 1.9 mph 2.3 mph 47 % 0.0 in
22:20 10.4 °F 2.7 °F 1016.8 in North 1.6 mph 1.6 mph 59 % 0.0 in
22:24 15.1 °F 3.8 °F 1019.9 in WSW 3.9 mph 3.9 mph 47 % 0.0 in
22:29 15.3 °F 4.1 °F 1019.9 in WSW 3.7 mph 3.9 mph 47 % 0.0 in
22:30 10.0 °F 2.3 °F 1016.8 in Calm   3.2 mph 59 % 0.0 in
22:34 15.2 °F 3.9 °F 1019.9 in WSW 2.6 mph 2.6 mph 47 % 0.0 in
22:39 15.1 °F 3.8 °F 1019.9 in Calm     47 % 0.0 in
22:40 9.8 °F 2.4 °F 1016.8 in Calm     60 % 0.0 in
22:44 14.9 °F 3.7 °F 1019.9 in West 2.3 mph   47 % 0.0 in
22:49 14.6 °F 3.7 °F 1018.8 in Calm     48 % 0.0 in
22:50 9.6 °F 2.2 °F 1016.8 in Calm     60 % 0.0 in
22:54 14.3 °F 3.4 °F 1018.8 in Calm     48 % 0.0 in
22:59 14.0 °F 3.2 °F 1018.8 in Calm     48 % 0.0 in
23:00 9.8 °F 2.4 °F 1016.8 in SSW 1.6 mph 1.6 mph 60 % 0.0 in
23:04 13.7 °F 2.9 °F 1018.8 in NNW 3.7 mph 3.7 mph 48 % 0.0 in
23:09 13.4 °F 2.9 °F 1018.8 in NNW 3.7 mph 3.7 mph 49 % 0.0 in
23:10 9.6 °F 2.4 °F 1016.8 in Calm   1.6 mph 61 % 0.0 in
23:14 13.7 °F 3.2 °F 1018.8 in NNW 1.9 mph 1.9 mph 49 % 0.0 in
23:19 13.8 °F 3.3 °F 1018.8 in West 3.7 mph 3.7 mph 49 % 0.0 in
23:20 9.8 °F 2.8 °F 1016.8 in Calm   1.6 mph 62 % 0.0 in
23:24 13.4 °F 2.9 °F 1018.8 in WSW 3.7 mph 3.7 mph 49 % 0.0 in
23:29 13.2 °F 2.7 °F 1018.8 in NNW 3.7 mph 3.7 mph 49 % 0.0 in
23:30 9.6 °F 2.7 °F 1016.8 in NW 1.6 mph 3.2 mph 62 % 0.0 in
23:34 13.2 °F 3.0 °F 1018.8 in NNW 1.9 mph 1.9 mph 50 % 0.0 in
23:39 13.1 °F 2.9 °F 1018.8 in Calm     50 % 0.0 in
23:40 9.6 °F 2.7 °F 1015.8 in ENE 3.2 mph 3.2 mph 62 % 0.0 in
23:44 13.2 °F 3.0 °F 1018.8 in Calm     50 % 0.0 in
23:49 13.2 °F 3.0 °F 1018.8 in Calm     50 % 0.0 in
23:50 9.6 °F 2.9 °F 1015.8 in Calm   1.6 mph 63 % 0.0 in
23:54 13.2 °F 3.0 °F 1018.8 in Calm     50 % 0.0 in
Meteo Sesrovires
Elogis d' Weather Underground - 2 mb

Guio original per  Jim McMurry - jmcmurry@mwt.net Adaptat per a la plantilla per  Wim van der Kuil - Leuven-Template.eu

Trobareu la nostra informacio del temps tambe a:

Weather Underground

AWEKAS